Terminal Aerodrome Forecast
Issued by NWS

Home | Current Version | Previous Version | Graphics & Text | Print | Product List | Glossary On
Versions: 1 2 3 4 5 6 7 8 9 10 11 12 13 14 15 16 17 18 19 20 21 22 23 24 25 26
930
FTUS43 KTOP 240854 AAA
TAFMHK
TAF AMD
KMHK 240854Z 2409/2506 20008KT P6SM SCT025 BKN200 WS020/21045KT
      TEMPO 2409/2411 01015G25KT
     FM241200 21009KT P6SM FEW040 BKN200
     FM241900 33006KT P6SM VCTS BKN040CB
     FM250000 VRB03KT P6SM -SHRA VCTS BKN040CB=

USA.gov is the U.S. government's official web portal to all federal, state and local government web resources and services.